Time;durP1;ratioP1;P1;durP2;ratioP2;P2;SDS_P1;SDS_P2;PMS_P1;PMS_P2;Temp;Humidity;BMP_temperature;BMP_pressure;BME280_temperature;BME280_humidity;BME280_pressure;Samples;Min_cycle;Max_cycle;Signal;HPM_P1;HPM_P2
2022/12/11 00:01:14;;;;;;;135.77;61.80;;;;;;;-0.05;100.00;101037.69;5090233;28;20022;-68
2022/12/11 00:03:40;;;;;;;120.10;60.35;;;;;;;0.10;100.00;101051.41;5091545;28;20047;-68
2022/12/11 00:06:07;;;;;;;120.53;58.70;;;;;;;0.13;100.00;101054.84;5072671;28;20078;-68
2022/12/11 00:08:33;;;;;;;125.23;60.40;;;;;;;0.18;100.00;101049.53;5091359;28;20052;-68
2022/12/11 00:10:58;;;;;;;124.47;59.33;;;;;;;0.14;100.00;101043.47;5091289;28;20528;-68
2022/12/11 00:13:24;;;;;;;115.67;58.57;;;;;;;0.14;100.00;101040.00;5091022;28;20035;-68
2022/12/11 00:15:49;;;;;;;117.27;59.47;;;;;;;0.15;100.00;101047.84;5089081;28;20111;-68
2022/12/11 00:18:15;;;;;;;108.87;55.37;;;;;;;0.16;100.00;101033.84;5055536;28;20028;-68
2022/12/11 00:20:40;;;;;;;112.37;57.23;;;;;;;0.15;100.00;101042.59;5090392;28;20038;-68
2022/12/11 00:23:06;;;;;;;114.10;57.47;;;;;;;0.17;100.00;101037.31;5072232;28;20106;-68
2022/12/11 00:25:31;;;;;;;110.87;59.37;;;;;;;0.08;100.00;101027.88;5091226;28;20085;-68
2022/12/11 00:27:57;;;;;;;112.60;57.97;;;;;;;0.18;100.00;101039.06;5090188;28;20028;-68
2022/12/11 00:30:22;;;;;;;108.37;57.40;;;;;;;0.17;100.00;101043.41;5076962;28;20028;-68
2022/12/11 00:32:50;;;;;;;106.80;56.50;;;;;;;0.16;100.00;101033.84;5094970;28;20060;-68
2022/12/11 00:35:17;;;;;;;105.00;53.70;;;;;;;0.15;100.00;101033.91;5076850;28;20032;-68
2022/12/11 00:37:43;;;;;;;109.80;56.87;;;;;;;0.18;100.00;101047.78;5093955;28;20024;-68
2022/12/11 00:40:09;;;;;;;103.67;55.63;;;;;;;0.19;100.00;101043.41;5076658;28;20082;-68
2022/12/11 00:42:35;;;;;;;104.93;56.33;;;;;;;0.22;100.00;101038.13;5075722;28;20123;-68
2022/12/11 00:45:00;;;;;;;108.33;54.77;;;;;;;0.20;100.00;101040.75;5076163;28;20123;-68
2022/12/11 00:47:25;;;;;;;100.73;55.23;;;;;;;0.18;100.00;101039.94;5092966;28;20469;-68
2022/12/11 00:49:51;;;;;;;102.90;55.60;;;;;;;0.17;100.00;101042.56;5094564;28;20089;-68
2022/12/11 00:52:17;;;;;;;105.77;54.90;;;;;;;0.18;100.00;101039.94;5093421;28;20056;-68
2022/12/11 00:54:43;;;;;;;100.43;55.87;;;;;;;0.22;100.00;101035.50;5055187;28;20035;-68
2022/12/11 00:57:09;;;;;;;101.33;54.70;;;;;;;0.21;100.00;101039.88;5093631;28;20030;-68
2022/12/11 00:59:35;;;;;;;93.87;51.43;;;;;;;0.24;100.00;101041.59;5059558;28;20024;-68
2022/12/11 01:02:00;;;;;;;100.03;52.77;;;;;;;0.30;100.00;101035.38;5076044;28;20131;-68
2022/12/11 01:04:26;;;;;;;92.73;53.93;;;;;;;0.26;100.00;101029.31;5094115;28;20027;-68
2022/12/11 01:06:52;;;;;;;92.43;52.53;;;;;;;0.30;100.00;101033.63;5094099;28;20036;-68
2022/12/11 01:12:04;;;;;;;91.90;51.87;;;;;;;0.31;100.00;101035.34;5073558;28;20052;-68
2022/12/11 01:14:29;;;;;;;89.17;50.30;;;;;;;0.29;100.00;101034.50;5091191;28;20491;-68
2022/12/11 01:16:55;;;;;;;86.87;50.40;;;;;;;0.30;100.00;101035.38;5059057;28;20031;-68
2022/12/11 01:19:22;;;;;;;88.40;50.27;;;;;;;0.33;100.00;101032.72;5076168;28;20024;-68
2022/12/11 01:21:48;;;;;;;86.23;49.80;;;;;;;0.30;100.00;101030.16;5075470;28;20039;-68
2022/12/11 01:24:14;;;;;;;88.70;50.33;;;;;;;0.32;100.00;101042.28;5093709;28;20410;-68
2022/12/11 01:26:39;;;;;;;86.73;51.27;;;;;;;0.32;100.00;101042.28;5075123;28;20039;-68
2022/12/11 01:29:04;;;;;;;88.80;49.73;;;;;;;0.30;100.00;101033.63;5058633;28;20181;-68
2022/12/11 01:31:30;;;;;;;82.03;48.50;;;;;;;0.36;100.00;101050.97;5093630;28;20083;-68
2022/12/11 01:33:59;;;;;;;79.93;47.87;;;;;;;0.35;100.00;101044.84;5075544;28;20065;-68
2022/12/11 01:36:24;;;;;;;82.17;47.60;;;;;;;0.39;100.00;101045.69;5076417;28;20043;-68
2022/12/11 01:38:49;;;;;;;81.73;47.50;;;;;;;0.32;100.00;101031.81;5075453;28;20024;-68
2022/12/11 01:41:17;;;;;;;79.57;47.07;;;;;;;0.38;100.00;101033.47;5075242;28;20119;-68
2022/12/11 01:44:07;;;;;;;80.73;48.23;;;;;;;0.41;100.00;101036.91;5092421;28;20080;-68
2022/12/11 01:46:35;;;;;;;78.40;47.53;;;;;;;0.45;100.00;101037.72;5092995;28;20056;-68
2022/12/11 01:49:04;;;;;;;75.70;45.50;;;;;;;0.42;100.00;101030.78;5093166;28;20040;-69
2022/12/11 01:51:35;;;;;;;77.47;45.97;;;;;;;0.50;100.00;101032.38;5093411;28;20383;-68
2022/12/11 01:54:06;;;;;;;75.13;47.60;;;;;;;0.48;100.00;101023.72;5090662;28;20016;-68
2022/12/11 01:56:34;;;;;;;78.60;45.87;;;;;;;0.49;100.00;101023.66;5075282;28;20047;-68
2022/12/11 01:59:06;;;;;;;78.80;46.23;;;;;;;0.49;100.00;101025.44;5092816;28;20026;-68
2022/12/11 02:01:39;;;;;;;75.10;46.97;;;;;;;0.48;100.00;101026.34;5093470;28;20028;-69
2022/12/11 02:04:06;;;;;;;72.77;45.30;;;;;;;0.48;100.00;101015.88;5093017;28;20036;-68
2022/12/11 02:06:36;;;;;;;77.97;46.33;;;;;;;0.49;100.00;101025.44;5093412;28;20024;-68
2022/12/11 02:09:06;;;;;;;72.15;45.25;;;;;;;0.50;100.00;101035.00;5074300;28;20019;-68
2022/12/11 02:11:38;;;;;;;68.32;42.83;;;;;;;0.51;100.00;101031.50;5093066;28;20439;-68
2022/12/11 02:14:19;;;;;;;74.57;45.63;;;;;;;0.49;100.00;101023.66;5092120;28;20028;-68
2022/12/11 02:17:11;;;;;;;75.53;46.10;;;;;;;0.51;100.00;101019.28;5093339;28;20027;-68
2022/12/11 02:19:36;;;;;;;71.47;43.83;;;;;;;0.45;100.00;101014.16;5075132;28;20433;-68
2022/12/11 02:22:07;;;;;;;72.67;45.50;;;;;;;0.46;100.00;101021.13;5074479;28;20122;-68
2022/12/11 02:24:44;;;;;;;74.70;44.20;;;;;;;0.44;100.00;101020.28;5093014;28;20024;-68
2022/12/11 02:27:25;;;;;;;69.87;44.40;;;;;;;0.45;100.00;101019.41;5091451;28;20031;-68
2022/12/11 02:30:00;;;;;;;69.97;42.50;;;;;;;0.48;100.00;101016.72;5057886;28;20028;-68
2022/12/11 02:32:33;;;;;;;69.80;42.37;;;;;;;0.45;100.00;101016.78;5092508;28;20028;-68
2022/12/11 02:35:12;;;;;;;69.03;43.63;;;;;;;0.47;100.00;101017.59;5085755;28;20024;-67
2022/12/11 02:37:42;;;;;;;67.30;42.07;;;;;;;0.46;100.00;101013.25;5092222;28;20027;-68
2022/12/11 02:40:12;;;;;;;;;;;;;;;0.59;100.00;101013.88;5092875;28;20020;-68
2022/12/11 02:42:41;;;;;;;70.43;43.70;;;;;;;0.49;100.00;101015.81;5091270;28;20291;-68
2022/12/11 02:45:08;;;;;;;64.37;41.80;;;;;;;0.47;100.00;101025.44;5090868;28;20044;-68
2022/12/11 02:47:35;;;;;;;60.63;40.90;;;;;;;0.50;100.00;101014.06;5092109;28;20111;-68
2022/12/11 02:50:06;;;;;;;60.33;40.03;;;;;;;0.50;100.00;101011.44;5092252;28;20390;-67
2022/12/11 02:52:33;;;;;;;56.20;37.47;;;;;;;0.51;100.00;101016.66;5090985;28;20028;-68
2022/12/11 02:55:01;;;;;;;55.80;39.20;;;;;;;0.52;100.00;101021.00;5073323;28;20031;-68
2022/12/11 02:57:58;;;;;;;53.83;38.33;;;;;;;0.53;100.00;101017.50;5091899;28;20215;-68
2022/12/11 03:00:25;;;;;;;53.37;36.10;;;;;;;0.49;100.00;101015.81;5092451;28;20035;-69
2022/12/11 03:02:51;;;;;;;48.17;35.70;;;;;;;0.48;100.00;101019.34;5073649;28;20032;-69
2022/12/11 03:05:18;;;;;;;51.77;37.10;;;;;;;0.49;100.00;101015.81;5074006;28;20375;-69
2022/12/11 03:07:44;;;;;;;49.80;36.33;;;;;;;0.45;100.00;101014.16;5092265;28;20028;-69
2022/12/11 03:10:13;;;;;;;47.53;34.47;;;;;;;0.49;100.00;101014.97;5091409;28;20034;-69
2022/12/11 03:12:42;;;;;;;44.95;33.80;;;;;;;0.49;100.00;101007.13;5091263;28;20028;-68
2022/12/11 03:15:12;;;;;;;40.80;31.47;;;;;;;0.42;99.75;101001.16;5092240;28;20077;-69
2022/12/11 03:18:09;;;;;;;40.40;31.17;;;;;;;0.44;100.00;100999.34;5091414;28;20023;-69
2022/12/11 03:20:59;;;;;;;36.17;30.47;;;;;;;0.44;99.42;100997.63;5091580;28;20028;-68
2022/12/11 03:23:35;;;;;;;35.38;28.90;;;;;;;0.47;99.04;101006.28;5091727;28;20027;-68
2022/12/11 03:26:11;;;;;;;38.63;30.73;;;;;;;0.39;99.29;100996.81;5092154;28;20140;-68
2022/12/11 03:28:59;;;;;;;38.20;31.03;;;;;;;0.41;99.55;100989.81;5072650;28;20246;-68
2022/12/11 03:31:39;;;;;;;36.57;29.27;;;;;;;0.42;100.00;100993.28;5091904;28;20177;-68
2022/12/11 03:34:14;;;;;;;37.35;30.83;;;;;;;0.40;99.22;100993.31;5091968;28;20024;-69
2022/12/11 03:36:42;;;;;;;36.47;29.77;;;;;;;0.47;98.86;100994.03;5091767;28;20032;-68
2022/12/11 03:39:14;;;;;;;37.07;30.40;;;;;;;0.38;99.45;100992.50;5091458;28;20039;-68
2022/12/11 03:41:43;;;;;;;35.47;29.27;;;;;;;0.40;99.46;100985.47;5091425;28;20078;-68
2022/12/11 03:44:10;;;;;;;36.40;30.07;;;;;;;0.42;99.63;100982.84;5091135;28;20107;-69
2022/12/11 03:46:41;;;;;;;37.60;30.33;;;;;;;0.43;99.50;100989.78;5091489;28;20059;-68
2022/12/11 03:49:15;;;;;;;35.77;29.13;;;;;;;0.45;99.57;100990.63;5091467;28;20043;-68
2022/12/11 03:51:42;;;;;;;35.50;30.40;;;;;;;0.48;99.34;100980.09;5091357;28;20459;-68
2022/12/11 03:54:07;;;;;;;39.50;30.53;;;;;;;0.47;99.80;100978.34;5090361;28;20039;-69
2022/12/11 03:56:36;;;;;;;37.33;29.70;;;;;;;0.47;99.34;100964.41;5074036;28;20035;-68
2022/12/11 03:59:04;;;;;;;37.33;30.17;;;;;;;0.47;99.63;100964.41;5073037;28;20024;-68
2022/12/11 04:01:29;;;;;;;36.73;30.37;;;;;;;0.45;99.75;100959.22;5091443;28;20024;-69
2022/12/11 04:03:58;;;;;;;38.67;29.97;;;;;;;0.47;99.48;100967.88;5075134;28;20039;-68
2022/12/11 04:06:24;;;;;;;38.13;29.43;;;;;;;0.44;99.60;100965.31;5077611;28;20039;-68
2022/12/11 04:08:49;;;;;;;33.83;29.27;;;;;;;0.44;98.89;100963.59;5060208;28;20040;-69
2022/12/11 04:11:33;;;;;;;38.97;30.47;;;;;;;0.49;99.39;100970.50;5077222;28;20051;-68
2022/12/11 04:16:49;;;;;;;34.15;28.58;;;;;;;0.53;99.11;100969.53;5075538;28;20511;-69
2022/12/11 04:25:00;;;;;;;35.10;29.00;;;;;;;0.58;98.77;100971.16;5049059;28;20044;-69
2022/12/11 04:28:11;;;;;;;37.50;30.40;;;;;;;0.58;98.60;100972.91;5076494;28;20020;-68
2022/12/11 04:30:15;;;;;;;35.97;29.13;;;;;;;0.57;99.10;100968.59;5069255;28;20028;-68
2022/12/11 04:32:41;;;;;;;37.13;28.67;;;;;;;0.57;98.54;100963.34;5094352;28;20016;-68
2022/12/11 04:35:08;;;;;;;33.37;28.47;;;;;;;0.63;97.98;100974.56;5093949;28;20434;-68
2022/12/11 04:37:34;;;;;;;35.67;29.20;;;;;;;0.65;98.07;100966.69;5094809;28;20024;-68
2022/12/11 04:39:59;;;;;;;39.03;29.30;;;;;;;0.58;98.02;100957.22;5094797;28;20027;-69
2022/12/11 04:42:25;;;;;;;37.10;29.73;;;;;;;0.64;97.78;100962.31;5075965;28;20487;-69
2022/12/11 04:44:50;;;;;;;33.50;28.63;;;;;;;0.67;97.85;100963.13;5059771;28;20122;-69
2022/12/11 04:47:16;;;;;;;37.17;28.80;;;;;;;0.65;98.09;100964.06;5094829;28;20032;-68
2022/12/11 04:49:42;;;;;;;36.13;29.30;;;;;;;0.61;97.99;100960.63;5058949;28;20024;-69
2022/12/11 04:52:08;;;;;;;34.73;27.57;;;;;;;0.57;97.76;100951.13;5094022;28;20538;-69
2022/12/11 04:54:37;;;;;;;37.27;30.07;;;;;;;0.59;97.70;100965.06;5059906;28;20058;-68
2022/12/11 04:57:03;;;;;;;38.43;30.10;;;;;;;0.54;97.70;100961.66;5076109;28;20032;-68
2022/12/11 04:59:31;;;;;;;35.50;29.40;;;;;;;0.53;97.21;100959.94;5094360;28;20036;-69
2022/12/11 05:01:56;;;;;;;36.87;29.73;;;;;;;0.58;97.73;100954.59;5094115;28;20022;-69
2022/12/11 05:04:22;;;;;;;38.33;29.67;;;;;;;0.58;97.24;100951.97;5094675;28;20020;-68
2022/12/11 05:06:49;;;;;;;37.57;29.70;;;;;;;0.48;96.74;100937.38;5094003;28;20398;-68
2022/12/11 05:09:15;;;;;;;35.77;29.97;;;;;;;0.54;96.34;100951.19;5094414;28;20020;-68
2022/12/11 05:11:40;;;;;;;36.87;29.60;;;;;;;0.55;96.43;100945.06;5093372;28;20069;-69
2022/12/11 05:14:06;;;;;;;38.97;29.17;;;;;;;0.57;96.96;100952.88;5093293;28;20046;-69
2022/12/11 05:16:31;;;;;;;37.83;30.80;;;;;;;0.54;96.26;100945.97;5074957;28;20130;-68
2022/12/11 05:18:57;;;;;;;37.60;30.93;;;;;;;0.59;94.58;100943.22;5059259;28;20042;-69
2022/12/11 05:21:23;;;;;;;35.07;29.60;;;;;;;0.51;95.10;100951.25;5075739;28;20023;-69
2022/12/11 05:23:48;;;;;;;36.53;30.70;;;;;;;0.50;95.10;100943.41;5094030;28;20058;-68
2022/12/11 05:26:19;;;;;;;36.57;31.17;;;;;;;0.53;94.34;100945.97;5075947;28;20058;-68
2022/12/11 05:28:45;;;;;;;34.40;30.00;;;;;;;0.54;94.28;100942.47;5075713;28;20031;-68
2022/12/11 05:31:17;;;;;;;39.17;29.80;;;;;;;0.53;94.87;100940.75;5063408;28;20033;-69
2022/12/11 05:33:46;;;;;;;36.13;30.03;;;;;;;0.46;94.98;100926.94;5076218;28;20032;-68
2022/12/11 05:36:15;;;;;;;34.28;28.27;;;;;;;0.52;94.43;100929.41;5093969;28;20059;-68
2022/12/11 05:38:41;;;;;;;35.17;28.30;;;;;;;0.54;93.98;100938.09;5092388;28;20487;-68
2022/12/11 05:41:07;;;;;;;35.47;29.13;;;;;;;0.57;94.40;100940.66;5075004;28;20035;-68
2022/12/11 05:43:35;;;;;;;33.47;27.40;;;;;;;0.58;93.48;100938.91;5093126;28;20111;-68
2022/12/11 05:46:09;;;;;;;33.77;27.63;;;;;;;0.57;93.92;100945.88;5090992;28;20574;-68
2022/12/11 05:48:35;;;;;;;32.10;27.30;;;;;;;0.59;93.87;100938.00;5093153;28;20016;-68
2022/12/11 05:51:02;;;;;;;34.70;29.60;;;;;;;0.59;94.53;100946.72;5074958;28;20020;-68
2022/12/11 05:53:29;;;;;;;36.57;28.73;;;;;;;0.56;94.56;100941.56;5092994;28;20027;-68
2022/12/11 05:55:56;;;;;;;33.53;27.00;;;;;;;0.60;93.54;100948.44;5093562;28;20028;-68
2022/12/11 05:58:22;;;;;;;34.47;27.23;;;;;;;0.58;94.25;100950.22;5075151;28;20398;-68
2022/12/11 06:00:48;;;;;;;32.97;26.43;;;;;;;0.60;94.52;100950.22;5075266;28;20498;-68
2022/12/11 06:03:13;;;;;;;32.93;27.63;;;;;;;0.59;94.24;100953.69;5092708;28;20028;-68
2022/12/11 06:05:40;;;;;;;32.30;26.33;;;;;;;0.59;94.90;100949.34;5092844;28;20417;-68
2022/12/11 06:08:06;;;;;;;33.30;27.73;;;;;;;0.62;93.27;100941.44;5092856;28;20459;-68
2022/12/11 06:10:33;;;;;;;31.77;25.80;;;;;;;0.61;92.68;100947.53;5093118;28;20044;-68
2022/12/11 06:12:58;;;;;;;33.80;27.80;;;;;;;0.58;93.27;100944.13;5092612;28;20080;-69
2022/12/11 06:15:24;;;;;;;33.00;26.70;;;;;;;0.60;93.05;100947.59;5075134;28;20039;-68
2022/12/11 06:17:50;;;;;;;32.87;26.93;;;;;;;0.65;93.12;100953.59;5092290;28;20039;-69
2022/12/11 06:20:15;;;;;;;31.50;26.43;;;;;;;0.67;93.22;100949.16;5075388;28;20080;-68
2022/12/11 06:22:41;;;;;;;32.03;27.97;;;;;;;0.66;93.22;100948.31;5074646;28;20081;-68
2022/12/11 06:25:08;;;;;;;33.57;28.07;;;;;;;0.64;92.73;100950.09;5073968;28;20407;-68
2022/12/11 06:27:36;;;;;;;34.27;27.97;;;;;;;0.62;93.13;100946.66;5091902;28;20020;-68
2022/12/11 06:30:02;;;;;;;34.43;27.83;;;;;;;0.72;92.94;100938.63;5092791;28;20488;-69
2022/12/11 06:32:28;;;;;;;30.63;25.77;;;;;;;0.73;92.94;100940.34;5093945;28;20114;-68
2022/12/11 06:34:53;;;;;;;34.93;26.63;;;;;;;0.73;92.96;100938.56;5092951;28;20391;-68
2022/12/11 06:37:18;;;;;;;31.87;27.20;;;;;;;0.73;92.19;100940.34;5073904;28;20028;-68
2022/12/11 06:39:44;;;;;;;32.20;26.30;;;;;;;0.78;92.27;100949.81;5091991;28;20111;-68
2022/12/11 06:42:10;;;;;;;33.80;27.73;;;;;;;0.80;92.47;100939.31;5073738;28;20031;-68
2022/12/11 06:44:35;;;;;;;32.03;25.53;;;;;;;0.73;92.89;100941.19;5059268;28;20093;-68
2022/12/11 06:47:02;;;;;;;32.37;26.50;;;;;;;0.78;92.79;100934.09;5073342;28;20052;-68
2022/12/11 06:49:29;;;;;;;30.73;25.83;;;;;;;0.77;93.48;100934.16;5091947;28;20553;-68
2022/12/11 06:51:57;;;;;;;32.40;26.70;;;;;;;0.75;92.28;100931.56;5091597;28;20478;-68
2022/12/11 06:54:28;;;;;;;30.67;26.00;;;;;;;0.71;92.74;100929.91;5092399;28;20478;-68
2022/12/11 06:56:54;;;;;;;29.73;25.40;;;;;;;0.76;92.15;100928.03;5091953;28;20110;-68
2022/12/11 06:59:20;;;;;;;31.80;26.37;;;;;;;0.73;91.69;100928.09;5057463;28;20110;-68
2022/12/11 07:01:45;;;;;;;29.87;24.33;;;;;;;0.72;92.18;100930.78;5074451;28;20020;-68
2022/12/11 07:04:10;;;;;;;29.97;24.77;;;;;;;0.71;92.11;100934.25;5073838;28;20368;-68
2022/12/11 07:06:36;;;;;;;32.13;25.87;;;;;;;0.73;92.20;100938.56;5073747;28;20032;-68
2022/12/11 07:09:07;;;;;;;31.87;26.23;;;;;;;0.68;91.74;100945.69;5073847;28;20076;-68
2022/12/11 07:11:35;;;;;;;33.43;27.87;;;;;;;0.72;91.51;100955.19;5092161;28;20540;-68
2022/12/11 07:14:01;;;;;;;32.57;27.07;;;;;;;0.71;91.25;100949.97;5091615;28;20111;-68
2022/12/11 07:16:27;;;;;;;32.63;26.20;;;;;;;0.66;91.25;100945.69;5057350;28;20115;-68
2022/12/11 07:18:53;;;;;;;35.10;27.90;;;;;;;0.70;91.95;100953.50;5072024;28;20394;-68
2022/12/11 07:21:19;;;;;;;31.90;27.43;;;;;;;0.70;91.09;100953.50;5056481;28;20032;-68
2022/12/11 07:23:45;;;;;;;31.93;26.90;;;;;;;0.71;91.26;100953.47;5092155;28;20060;-68
2022/12/11 07:26:13;;;;;;;35.33;27.10;;;;;;;0.72;92.01;100963.03;5073719;28;20051;-68
2022/12/11 07:28:40;;;;;;;33.63;27.13;;;;;;;0.73;91.62;100969.13;5091079;28;20101;-68
2022/12/11 07:31:10;;;;;;;35.80;28.13;;;;;;;0.70;91.41;100963.97;5091645;28;20019;-69
2022/12/11 07:33:36;;;;;;;33.07;27.60;;;;;;;0.78;91.81;100970.75;5091802;28;20031;-68
2022/12/11 07:36:06;;;;;;;34.33;28.03;;;;;;;0.76;91.64;100964.69;5091639;28;20028;-68
2022/12/11 07:38:32;;;;;;;36.45;27.23;;;;;;;0.78;91.76;100964.66;5094410;28;20111;-68
2022/12/11 07:41:06;;;;;;;32.47;27.93;;;;;;;0.77;91.24;100965.56;5098454;28;20035;-68
2022/12/11 07:43:33;;;;;;;35.70;28.33;;;;;;;0.76;92.02;100962.06;5080185;28;20020;-68
2022/12/11 07:46:10;;;;;;;34.17;28.20;;;;;;;0.73;91.57;100956.91;5098148;28;20406;-68
2022/12/11 07:48:36;;;;;;;36.17;29.43;;;;;;;0.66;91.82;100953.56;5080144;28;20047;-68
2022/12/11 07:51:16;;;;;;;31.77;27.50;;;;;;;0.75;92.11;100962.97;5098342;28;20035;-69
2022/12/11 07:53:49;;;;;;;32.93;27.30;;;;;;;0.73;91.94;100962.13;5097748;28;20115;-69
2022/12/11 07:56:15;;;;;;;37.70;28.67;;;;;;;0.70;91.72;100962.19;5098644;28;20062;-68
2022/12/11 07:58:44;;;;;;;36.33;28.67;;;;;;;0.66;91.44;100969.25;5097606;28;20498;-68
2022/12/11 08:01:20;;;;;;;37.27;29.47;;;;;;;0.67;91.35;100967.50;5098237;28;20032;-69
2022/12/11 08:03:45;;;;;;;35.83;27.77;;;;;;;0.66;91.16;100961.41;5080220;28;20024;-69
2022/12/11 08:06:14;;;;;;;37.40;29.67;;;;;;;0.60;91.28;100965.91;5097994;28;20548;-68
2022/12/11 08:08:40;;;;;;;38.03;29.33;;;;;;;0.62;91.23;100964.13;5079099;28;20111;-69
2022/12/11 08:11:08;;;;;;;38.27;28.17;;;;;;;0.59;91.98;100958.94;5098015;28;20539;-69
2022/12/11 08:13:34;;;;;;;40.27;30.47;;;;;;;0.57;91.79;100966.81;5096088;28;20030;-69
2022/12/11 08:16:12;;;;;;;37.17;30.70;;;;;;;0.61;91.85;100968.47;5098408;28;20039;-69
2022/12/11 08:18:38;;;;;;;41.53;31.90;;;;;;;0.59;92.07;100967.66;5097910;28;20031;-69
2022/12/11 08:21:11;;;;;;;38.73;30.97;;;;;;;0.59;92.34;100957.19;5098235;28;20053;-69
2022/12/11 08:23:37;;;;;;;38.10;30.43;;;;;;;0.55;92.13;100959.91;5098235;28;20050;-69
2022/12/11 08:26:04;;;;;;;38.97;30.80;;;;;;;0.51;92.15;100953.88;5097921;28;20482;-69
2022/12/11 08:28:30;;;;;;;40.97;31.43;;;;;;;0.60;91.87;100963.28;5097158;28;20024;-68
2022/12/11 08:30:56;;;;;;;40.97;31.73;;;;;;;0.58;92.18;100962.44;5060664;28;20524;-69
2022/12/11 08:33:22;;;;;;;39.57;31.67;;;;;;;0.58;91.95;100965.06;5097937;28;20036;-69
2022/12/11 08:35:50;;;;;;;35.63;30.23;;;;;;;0.53;92.06;100970.41;5080002;28;20039;-68
2022/12/11 08:38:15;;;;;;;37.77;29.73;;;;;;;0.58;92.27;100968.53;5079992;28;20028;-69
2022/12/11 08:40:40;;;;;;;37.50;30.80;;;;;;;0.59;92.40;100961.53;5076631;28;20085;-69
2022/12/11 08:43:09;;;;;;;38.23;31.07;;;;;;;0.58;92.35;100968.53;5075824;28;20032;-69
2022/12/11 08:45:34;;;;;;;37.47;30.03;;;;;;;0.60;91.82;100958.06;5050409;28;20053;-68
2022/12/11 08:48:03;;;;;;;37.67;28.83;;;;;;;0.66;92.40;100961.41;5055495;28;20497;-68
2022/12/11 08:50:29;;;;;;;41.17;31.50;;;;;;;0.70;92.22;100966.56;5077459;28;20052;-69
2022/12/11 08:52:54;;;;;;;40.27;32.13;;;;;;;0.70;91.79;100961.34;5094680;28;20086;-68
2022/12/11 08:55:20;;;;;;;39.33;30.33;;;;;;;0.68;91.78;100954.41;5093690;28;20023;-67
2022/12/11 08:57:46;;;;;;;37.87;29.20;;;;;;;0.65;91.71;100956.22;5055349;28;20486;-68
2022/12/11 09:00:15;;;;;;;36.67;29.33;;;;;;;0.65;91.74;100950.97;5088704;28;20024;-69
2022/12/11 09:02:40;;;;;;;36.67;29.40;;;;;;;0.63;91.92;100958.84;5069618;28;20040;-69
2022/12/11 09:05:08;;;;;;;37.60;28.60;;;;;;;0.61;91.67;100963.25;5075589;28;20231;-68
2022/12/11 09:07:34;;;;;;;36.93;28.70;;;;;;;0.67;91.33;100962.25;5076274;28;20389;-69
2022/12/11 09:10:00;;;;;;;38.63;29.33;;;;;;;0.67;91.50;100949.16;5094075;28;20027;-69
2022/12/11 09:12:27;;;;;;;38.73;29.97;;;;;;;0.66;91.73;100957.94;5074563;28;20107;-68
2022/12/11 09:14:53;;;;;;;35.83;28.37;;;;;;;0.60;91.60;100945.81;5093500;28;20031;-69
2022/12/11 09:17:18;;;;;;;41.57;29.63;;;;;;;0.61;91.14;100955.41;5093559;28;20382;-69
2022/12/11 09:19:44;;;;;;;39.97;30.20;;;;;;;0.60;91.21;100952.81;5076802;28;20430;-69
2022/12/11 09:22:11;;;;;;;36.80;29.00;;;;;;;0.59;91.75;100954.59;5058700;28;20028;-69
2022/12/11 09:24:37;;;;;;;38.73;30.50;;;;;;;0.55;91.82;100939.81;5093483;28;20028;-69
2022/12/11 09:27:06;;;;;;;38.03;29.23;;;;;;;0.58;91.68;100954.59;5074739;28;20046;-68
2022/12/11 09:29:31;;;;;;;38.47;30.77;;;;;;;0.62;91.45;100956.28;5074998;28;20032;-69
2022/12/11 09:31:57;;;;;;;42.07;31.33;;;;;;;0.64;91.92;100959.72;5093046;28;20448;-69
2022/12/11 09:34:23;;;;;;;37.50;30.33;;;;;;;0.64;91.63;100955.31;5097762;28;20444;-68
2022/12/11 09:36:48;;;;;;;40.13;29.90;;;;;;;0.70;92.10;100940.41;5052187;28;20039;-68
2022/12/11 09:39:16;;;;;;;39.83;31.17;;;;;;;0.66;92.10;100953.56;5076476;28;20032;-65
2022/12/11 09:41:54;;;;;;;36.33;30.77;;;;;;;0.73;91.22;100953.41;5084670;28;20024;-65
2022/12/11 09:44:46;;;;;;;42.33;32.00;;;;;;;0.66;91.94;100948.31;5090659;28;20039;-66
2022/12/11 09:47:22;;;;;;;41.60;31.77;;;;;;;0.66;91.59;100948.31;5090936;28;20054;-66
2022/12/11 09:49:55;;;;;;;41.53;32.07;;;;;;;0.64;91.56;100941.38;5093176;28;20032;-67
2022/12/11 09:52:39;;;;;;;41.70;31.67;;;;;;;0.65;91.54;100948.38;5089259;28;20036;-66
2022/12/11 09:55:16;;;;;;;41.23;31.83;;;;;;;0.67;91.93;100944.78;5089112;28;20095;-66
2022/12/11 09:58:00;;;;;;;39.50;30.87;;;;;;;0.71;92.10;100929.03;5067531;28;20028;-66
2022/12/11 10:00:28;;;;;;;39.80;29.70;;;;;;;0.65;91.63;100930.91;5090042;28;20395;-66
2022/12/11 10:03:24;;;;;;;37.90;29.67;;;;;;;0.69;91.66;100944.78;5092009;28;20115;-66
2022/12/11 10:06:16;;;;;;;40.73;29.90;;;;;;;0.65;91.97;100933.53;5078335;28;20391;-66
2022/12/11 10:08:56;;;;;;;38.50;29.23;;;;;;;0.63;92.00;100942.28;5092369;28;20471;-67
2022/12/11 10:11:49;;;;;;;38.80;29.67;;;;;;;0.67;91.98;100944.78;5090779;28;20176;-67
2022/12/11 10:14:17;;;;;;;37.87;29.43;;;;;;;0.73;91.91;100945.56;5074515;28;20031;-66
2022/12/11 10:17:01;;;;;;;38.20;29.20;;;;;;;0.75;91.67;100942.03;5093362;28;20035;-66
2022/12/11 10:19:30;;;;;;;36.07;27.73;;;;;;;0.73;91.37;100937.72;5092781;28;20483;-66
2022/12/11 10:21:57;;;;;;;34.33;26.77;;;;;;;0.73;91.51;100933.34;5085641;28;20038;-66
2022/12/11 10:24:50;;;;;;;38.03;27.80;;;;;;;0.80;91.76;100937.56;5062342;28;20119;-66
2022/12/11 10:27:20;;;;;;;35.93;26.43;;;;;;;0.72;91.39;100934.25;5082246;28;20578;-66
2022/12/11 10:29:47;;;;;;;38.33;26.95;;;;;;;0.69;91.26;100926.47;5093289;28;20035;-66
2022/12/11 10:32:25;;;;;;;37.00;27.40;;;;;;;0.78;91.99;100936.72;5092566;28;20638;-66
2022/12/11 10:34:59;;;;;;;37.27;28.23;;;;;;;0.74;91.35;100934.22;5091233;28;20020;-66
2022/12/11 10:37:25;;;;;;;38.07;28.20;;;;;;;0.72;91.02;100931.63;5092681;28;20364;-66
2022/12/11 10:39:51;;;;;;;35.83;27.33;;;;;;;0.72;91.13;100920.31;5051238;28;20089;-66
2022/12/11 10:42:19;;;;;;;35.90;27.53;;;;;;;0.78;91.22;100928.03;5053915;28;20036;-66
2022/12/11 10:45:03;;;;;;;38.07;28.93;;;;;;;0.80;91.37;100929.72;5055023;28;20119;-66
2022/12/11 10:47:28;;;;;;;38.50;28.83;;;;;;;0.78;90.86;100922.78;5032388;28;20472;-66
2022/12/11 10:49:57;;;;;;;37.07;28.47;;;;;;;0.76;90.48;100932.41;5039663;28;20048;-66
2022/12/11 10:52:37;;;;;;;38.40;28.23;;;;;;;0.77;91.49;100921.94;5051991;28;20037;-67
2022/12/11 10:55:24;;;;;;;37.03;27.23;;;;;;;0.84;91.11;100920.03;5050927;28;20384;-65
2022/12/11 10:58:02;;;;;;;36.47;27.13;;;;;;;0.86;90.91;100911.25;5051736;28;20049;-65
2022/12/11 11:00:31;;;;;;;35.57;28.33;;;;;;;0.83;91.23;100905.22;5050488;28;20025;-65
2022/12/11 11:02:58;;;;;;;36.55;28.02;;;;;;;0.93;91.01;100911.97;5054127;28;20185;-66
2022/12/11 11:05:35;;;;;;;39.43;28.50;;;;;;;0.94;90.78;100911.06;5062782;28;20032;-66
2022/12/11 11:08:14;;;;;;;38.57;28.40;;;;;;;1.01;90.34;100906.56;5051661;28;20025;-66
2022/12/11 11:10:57;;;;;;;37.67;29.38;;;;;;;1.04;90.35;100902.13;5051968;28;20032;-66
2022/12/11 11:13:25;;;;;;;41.47;30.60;;;;;;;1.03;89.64;100903.03;5061578;28;20358;-66
2022/12/11 11:16:05;;;;;;;36.80;28.90;;;;;;;1.09;90.12;100908.13;5060682;28;20021;-66
2022/12/11 11:18:33;;;;;;;39.27;28.07;;;;;;;1.06;89.58;100910.81;5051717;28;20420;-66
2022/12/11 11:20:59;;;;;;;40.40;29.07;;;;;;;1.03;89.33;100900.41;5051721;28;20423;-66
2022/12/11 11:23:26;;;;;;;38.47;29.77;;;;;;;1.02;89.33;100893.44;5051433;28;20357;-66
2022/12/11 11:26:06;;;;;;;38.80;28.87;;;;;;;1.14;90.38;100901.00;5053921;28;20051;-66
2022/12/11 11:28:48;;;;;;;38.75;28.70;;;;;;;1.18;89.82;100898.31;5051236;28;20029;-66
2022/12/11 11:31:16;;;;;;;36.07;28.03;;;;;;;1.17;89.28;100905.31;5050323;28;20024;-66
2022/12/11 11:34:04;;;;;;;37.73;27.43;;;;;;;1.24;88.77;100900.81;5050306;28;20033;-66
2022/12/11 11:36:33;;;;;;;37.83;27.83;;;;;;;1.05;88.09;100869.78;5051462;28;20037;-66